Time;durP1;ratioP1;P1;durP2;ratioP2;P2;SDS_P1;SDS_P2;PMS_P1;PMS_P2;Temp;Humidity;BMP_temperature;BMP_pressure;BME280_temperature;BME280_humidity;BME280_pressure;Samples;Min_cycle;Max_cycle;Signal;HPM_P1;HPM_P2
2023/12/29 00:01:17;;;;;;;18.00;3.08;;;;;;;10.89;100.00;100601.94;5090063;28;20036;-73
2023/12/29 00:03:42;;;;;;;15.30;3.00;;;;;;;10.85;100.00;100595.13;5096397;27;20059;-73
2023/12/29 00:06:08;;;;;;;15.07;3.40;;;;;;;10.93;100.00;100594.59;5096522;27;20086;-73
2023/12/29 00:08:33;;;;;;;13.18;2.75;;;;;;;10.87;100.00;100602.06;5101695;27;22788;-74
2023/12/29 00:10:59;;;;;;;20.70;3.30;;;;;;;10.99;100.00;100586.16;5094809;27;20040;-73
2023/12/29 00:13:25;;;;;;;15.35;3.20;;;;;;;10.98;100.00;100589.78;5089704;28;20032;-74
2023/12/29 00:15:55;;;;;;;15.50;3.10;;;;;;;11.07;100.00;100598.00;5091528;27;20032;-73
2023/12/29 00:18:21;;;;;;;15.23;3.10;;;;;;;11.05;100.00;100586.59;5077971;28;20493;-74
2023/12/29 00:20:48;;;;;;;14.65;3.42;;;;;;;11.05;100.00;100589.28;5098205;27;20048;-73
2023/12/29 00:23:13;;;;;;;13.57;3.72;;;;;;;10.99;100.00;100583.47;5092690;27;20042;-73
2023/12/29 00:25:39;;;;;;;19.23;3.25;;;;;;;11.05;100.00;100597.28;5076117;27;20047;-74
2023/12/29 00:28:08;;;;;;;10.88;3.30;;;;;;;11.02;100.00;100585.94;5097814;27;20024;-73
2023/12/29 00:30:39;;;;;;;12.13;3.78;;;;;;;11.02;100.00;100592.13;5097888;27;20035;-74
2023/12/29 00:33:04;;;;;;;13.90;3.63;;;;;;;11.07;100.00;100583.81;5101386;27;20032;-73
2023/12/29 00:35:30;;;;;;;11.80;2.83;;;;;;;11.05;100.00;100593.75;5093332;27;20028;-74
2023/12/29 00:37:56;;;;;;;8.25;2.42;;;;;;;11.03;100.00;100587.66;5086085;27;20097;-74
2023/12/29 00:40:22;;;;;;;15.10;3.08;;;;;;;10.91;100.00;100583.19;5086039;28;20075;-74
2023/12/29 00:42:48;;;;;;;14.07;4.13;;;;;;;10.88;100.00;100589.56;5074371;28;20051;-73
2023/12/29 00:45:13;;;;;;;18.10;2.80;;;;;;;10.86;100.00;100581.69;5099932;27;20032;-73
2023/12/29 00:47:39;;;;;;;12.02;3.30;;;;;;;10.83;100.00;100557.88;5082559;28;20101;-74
2023/12/29 00:50:05;;;;;;;19.58;4.10;;;;;;;10.83;100.00;100565.03;5087300;27;20027;-74
2023/12/29 00:52:30;;;;;;;18.58;3.25;;;;;;;10.90;100.00;100571.66;5093391;27;20040;-74
2023/12/29 00:54:56;;;;;;;24.17;3.75;;;;;;;10.92;100.00;100572.41;5077045;27;20089;-73
2023/12/29 00:57:21;;;;;;;16.38;3.53;;;;;;;10.95;100.00;100572.19;5098325;27;20036;-74
2023/12/29 00:59:47;;;;;;;14.90;3.70;;;;;;;10.97;100.00;100572.06;5072875;27;20040;-73
2023/12/29 01:02:12;;;;;;;16.80;3.80;;;;;;;11.07;100.00;100562.47;5095978;27;20208;-73
2023/12/29 01:04:39;;;;;;;13.57;2.97;;;;;;;10.98;100.00;100555.94;5079446;27;20067;-73
2023/12/29 01:07:05;;;;;;;16.20;3.25;;;;;;;11.03;100.00;100561.81;5104135;27;20035;-73
2023/12/29 01:09:31;;;;;;;17.75;3.38;;;;;;;11.03;100.00;100556.47;5094161;27;20031;-72
2023/12/29 01:11:56;;;;;;;12.95;3.03;;;;;;;11.13;100.00;100559.38;5072211;27;20036;-73
2023/12/29 01:14:22;;;;;;;10.30;2.70;;;;;;;11.02;100.00;100549.44;5091435;27;20074;-73
2023/12/29 01:16:47;;;;;;;15.23;3.13;;;;;;;11.00;100.00;100563.88;5094094;27;20036;-73
2023/12/29 01:19:13;;;;;;;14.63;3.35;;;;;;;10.96;100.00;100562.38;5080471;28;20510;-73
2023/12/29 01:21:39;;;;;;;12.93;3.38;;;;;;;10.96;100.00;100551.69;5071412;28;20843;-73
2023/12/29 01:24:06;;;;;;;13.13;2.80;;;;;;;10.82;100.00;100556.16;5079434;28;20032;-72
2023/12/29 01:26:36;;;;;;;13.15;3.38;;;;;;;10.87;100.00;100550.50;5106093;27;20886;-73
2023/12/29 01:29:02;;;;;;;19.55;3.50;;;;;;;10.80;100.00;100546.59;5059457;27;20086;-73
2023/12/29 01:31:31;;;;;;;10.73;3.50;;;;;;;10.78;100.00;100557.34;5108364;27;20117;-73
2023/12/29 01:33:56;;;;;;;11.27;3.17;;;;;;;10.75;100.00;100567.38;5100498;27;20074;-73
2023/12/29 01:36:22;;;;;;;17.45;2.97;;;;;;;10.61;100.00;100566.50;5078314;28;20182;-73
2023/12/29 01:38:48;;;;;;;16.95;3.60;;;;;;;10.70;100.00;100567.69;5102347;27;20113;-72
2023/12/29 01:41:15;;;;;;;14.57;3.05;;;;;;;10.61;100.00;100561.16;5102010;27;20467;-74
2023/12/29 01:43:59;;;;;;;13.23;3.70;;;;;;;10.59;100.00;100555.09;5094329;27;20039;-73
2023/12/29 01:46:30;;;;;;;13.40;3.13;;;;;;;10.62;100.00;100578.88;5054288;28;20126;-73
2023/12/29 01:48:58;;;;;;;17.08;3.58;;;;;;;10.56;100.00;100571.28;5110739;27;20492;-73
2023/12/29 01:51:25;;;;;;;16.52;4.10;;;;;;;10.54;100.00;100572.34;5098000;27;20087;-72
2023/12/29 01:53:52;;;;;;;15.13;3.15;;;;;;;10.44;100.00;100571.25;5094884;27;20101;-73
2023/12/29 01:56:18;;;;;;;17.63;3.97;;;;;;;10.42;100.00;100573.16;5071736;27;20584;-73
2023/12/29 01:58:47;;;;;;;20.33;3.72;;;;;;;10.37;100.00;100565.47;5110158;27;20031;-73
2023/12/29 02:01:14;;;;;;;10.07;2.90;;;;;;;10.47;100.00;100576.38;5090201;27;20081;-73
2023/12/29 02:03:39;;;;;;;16.30;3.15;;;;;;;10.38;100.00;100552.03;5083766;28;20040;-73
2023/12/29 02:06:06;;;;;;;11.75;3.55;;;;;;;10.43;100.00;100557.06;5095996;27;20044;-72
2023/12/29 02:08:32;;;;;;;9.13;2.67;;;;;;;10.49;100.00;100553.13;5092296;28;20036;-73
2023/12/29 02:10:58;;;;;;;16.38;3.10;;;;;;;10.57;100.00;100559.66;5095417;27;20027;-73
2023/12/29 02:13:24;;;;;;;18.13;3.30;;;;;;;10.58;100.00;100556.03;5091917;28;20129;-73
2023/12/29 02:15:54;;;;;;;14.50;3.03;;;;;;;10.46;100.00;100564.88;5096885;27;20047;-73
2023/12/29 02:18:22;;;;;;;12.27;2.97;;;;;;;10.39;100.00;100568.88;5102986;27;20027;-73
2023/12/29 02:20:47;;;;;;;16.80;3.63;;;;;;;10.47;100.00;100571.91;5101815;27;20038;-72
2023/12/29 02:23:13;;;;;;;9.02;3.67;;;;;;;10.49;100.00;100578.00;5080287;27;20033;-73
2023/12/29 02:25:39;;;;;;;13.38;2.88;;;;;;;10.43;100.00;100575.72;5098588;27;20120;-73
2023/12/29 02:28:20;;;;;;;10.15;2.95;;;;;;;10.45;100.00;100575.66;5077367;27;20039;-73
2023/12/29 02:31:08;;;;;;;17.90;4.38;;;;;;;10.40;100.00;100559.97;5088446;27;20039;-72
2023/12/29 02:33:40;;;;;;;12.35;3.47;;;;;;;10.46;100.00;100559.53;5092387;27;20032;-72
2023/12/29 02:36:06;;;;;;;11.27;3.22;;;;;;;10.35;100.00;100562.94;5108179;27;20054;-73
2023/12/29 02:38:32;;;;;;;14.98;3.28;;;;;;;10.42;100.00;100566.03;5097788;27;20054;-74
2023/12/29 02:40:59;;;;;;;10.25;2.80;;;;;;;10.33;100.00;100566.63;5098806;27;20052;-73
2023/12/29 02:43:25;;;;;;;16.17;3.45;;;;;;;10.22;100.00;100563.81;5095568;27;20032;-73
2023/12/29 02:45:51;;;;;;;8.40;3.00;;;;;;;10.22;100.00;100571.81;5092164;28;20118;-73
2023/12/29 02:48:16;;;;;;;14.98;3.55;;;;;;;10.20;100.00;100573.72;5101960;27;20028;-73
2023/12/29 02:50:42;;;;;;;27.95;4.70;;;;;;;10.18;100.00;100572.94;5096244;27;20033;-73
2023/12/29 02:53:08;;;;;;;11.75;3.35;;;;;;;10.20;100.00;100565.72;5093375;27;20051;-74
2023/12/29 02:55:34;;;;;;;17.15;3.33;;;;;;;10.09;100.00;100563.75;5076564;27;20028;-73
2023/12/29 02:57:59;;;;;;;23.58;4.00;;;;;;;10.23;100.00;100577.03;5100878;27;20040;-72
2023/12/29 03:00:25;;;;;;;10.98;3.38;;;;;;;10.18;100.00;100571.13;5101374;27;20036;-73
2023/12/29 03:02:50;;;;;;;10.48;3.20;;;;;;;10.20;100.00;100579.91;5097833;27;20036;-73
2023/12/29 03:05:16;;;;;;;27.13;5.43;;;;;;;10.17;100.00;100561.44;5079989;28;20036;-73
2023/12/29 03:07:42;;;;;;;17.63;3.70;;;;;;;10.19;100.00;100561.34;5100941;27;20070;-73
2023/12/29 03:10:08;;;;;;;14.88;3.58;;;;;;;10.19;100.00;100548.00;5085355;27;20036;-72
2023/12/29 03:12:33;;;;;;;10.13;3.05;;;;;;;10.25;100.00;100561.84;5064514;27;20059;-73
2023/12/29 03:14:59;;;;;;;15.23;3.97;;;;;;;10.28;100.00;100552.75;5104098;27;20047;-73
2023/12/29 03:17:25;;;;;;;20.55;3.88;;;;;;;10.22;100.00;100548.66;5094119;27;20078;-73
2023/12/29 03:19:52;;;;;;;15.30;3.55;;;;;;;10.23;100.00;100541.53;5103851;27;20044;-72
2023/12/29 03:22:18;;;;;;;14.98;3.22;;;;;;;10.29;100.00;100557.13;5105976;27;20027;-73
2023/12/29 03:24:44;;;;;;;14.05;3.33;;;;;;;10.29;100.00;100528.69;5100639;27;20031;-73
2023/12/29 03:27:10;;;;;;;12.00;3.42;;;;;;;10.27;100.00;100535.06;5100461;27;20036;-73
2023/12/29 03:29:35;;;;;;;12.15;3.25;;;;;;;10.29;100.00;100526.03;5094409;27;20127;-73
2023/12/29 03:32:01;;;;;;;19.17;4.05;;;;;;;10.33;100.00;100529.31;5096683;27;20053;-73
2023/12/29 03:34:27;;;;;;;18.70;4.07;;;;;;;10.34;100.00;100536.34;5108293;27;20048;-74
2023/12/29 03:36:52;;;;;;;13.82;3.20;;;;;;;10.34;100.00;100541.69;5106055;27;20126;-73
2023/12/29 03:39:18;;;;;;;14.63;3.70;;;;;;;10.41;100.00;100535.00;5081524;27;20040;-73
2023/12/29 03:41:44;;;;;;;17.02;3.78;;;;;;;10.41;100.00;100534.16;5105474;27;20036;-73
2023/12/29 03:44:09;;;;;;;16.00;3.58;;;;;;;10.44;100.00;100531.25;5101810;27;20040;-73
2023/12/29 03:46:35;;;;;;;13.18;4.10;;;;;;;10.48;100.00;100528.28;5077611;27;20040;-72
2023/12/29 03:49:00;;;;;;;22.95;4.68;;;;;;;10.49;100.00;100527.34;5090550;27;20120;-73
2023/12/29 03:51:26;;;;;;;14.63;3.40;;;;;;;10.52;100.00;100531.59;5085658;27;20423;-73
2023/12/29 03:53:51;;;;;;;17.73;3.45;;;;;;;10.54;100.00;100535.00;5104796;27;20536;-73
2023/12/29 03:56:18;;;;;;;20.33;3.85;;;;;;;10.59;100.00;100525.75;5103289;27;20035;-73
2023/12/29 03:58:44;;;;;;;18.98;3.28;;;;;;;10.55;100.00;100515.41;5107910;27;20567;-73
2023/12/29 04:01:14;;;;;;;15.25;3.03;;;;;;;10.62;100.00;100522.03;5085012;27;20054;-73
2023/12/29 04:03:40;;;;;;;17.45;3.25;;;;;;;10.61;100.00;100521.16;5089215;28;20098;-73
2023/12/29 04:06:07;;;;;;;16.25;3.22;;;;;;;10.62;100.00;100525.53;5101238;27;20070;-74
2023/12/29 04:08:33;;;;;;;15.95;3.15;;;;;;;10.69;100.00;100525.09;5106135;27;20428;-74
2023/12/29 04:10:59;;;;;;;11.80;3.70;;;;;;;10.66;100.00;100520.84;5085044;28;20087;-73
2023/12/29 04:13:24;;;;;;;22.90;4.80;;;;;;;10.59;100.00;100517.75;5118218;27;20521;-73
2023/12/29 04:15:50;;;;;;;15.40;4.28;;;;;;;10.65;100.00;100516.50;5112083;27;20461;-72
2023/12/29 04:18:15;;;;;;;11.07;3.40;;;;;;;10.66;100.00;100520.00;5098792;27;20368;-73
2023/12/29 04:20:41;;;;;;;15.20;4.55;;;;;;;10.68;100.00;100518.06;5106804;27;20418;-73
2023/12/29 04:23:07;;;;;;;23.40;4.57;;;;;;;10.68;100.00;100515.41;5092237;27;20552;-73
2023/12/29 04:25:33;;;;;;;18.42;4.20;;;;;;;10.67;100.00;100519.88;5115104;27;20031;-73
2023/12/29 04:27:59;;;;;;;18.15;4.18;;;;;;;10.75;100.00;100516.72;5105364;27;20035;-73
2023/12/29 04:30:25;;;;;;;16.85;3.00;;;;;;;10.73;100.00;100510.59;5113034;27;20532;-73
2023/12/29 04:32:54;;;;;;;17.25;3.97;;;;;;;10.67;100.00;100519.88;5101932;27;20036;-72
2023/12/29 04:35:19;;;;;;;23.70;4.55;;;;;;;10.68;100.00;100510.91;5100116;28;20572;-73
2023/12/29 04:37:49;;;;;;;15.85;3.50;;;;;;;10.67;100.00;100511.88;5111217;27;20456;-73
2023/12/29 04:40:15;;;;;;;22.10;4.47;;;;;;;10.65;100.00;100511.16;5092122;27;20112;-73
2023/12/29 04:42:40;;;;;;;16.33;3.75;;;;;;;10.66;100.00;100509.34;5104780;27;20058;-72
2023/12/29 04:45:07;;;;;;;18.45;3.67;;;;;;;10.62;100.00;100520.19;5096193;27;20618;-73
2023/12/29 04:47:32;;;;;;;18.25;3.95;;;;;;;10.70;100.00;100527.69;5095421;28;20115;-72
2023/12/29 04:49:58;;;;;;;17.98;4.25;;;;;;;10.64;100.00;100530.75;5097754;27;20058;-73
2023/12/29 04:52:24;;;;;;;21.25;4.38;;;;;;;10.66;100.00;100525.34;5075656;27;20384;-73
2023/12/29 04:54:49;;;;;;;15.75;3.70;;;;;;;10.71;100.00;100523.22;5092049;27;20038;-74
2023/12/29 04:57:15;;;;;;;25.02;5.35;;;;;;;10.66;100.00;100510.19;5104324;27;20028;-74
2023/12/29 04:59:41;;;;;;;19.08;4.38;;;;;;;10.68;100.00;100523.41;5082371;27;20608;-73
2023/12/29 05:02:06;;;;;;;20.40;3.95;;;;;;;10.66;100.00;100523.53;5082675;28;20460;-73
2023/12/29 05:04:32;;;;;;;14.25;4.00;;;;;;;10.69;100.00;100523.28;5094454;27;20655;-72
2023/12/29 05:06:57;;;;;;;21.00;3.97;;;;;;;10.65;100.00;100529.81;5079241;28;20632;-74
2023/12/29 05:09:23;;;;;;;17.77;3.88;;;;;;;10.75;100.00;100530.91;5095600;27;20169;-73
2023/12/29 05:11:49;;;;;;;19.83;4.75;;;;;;;10.74;100.00;100529.16;5090868;27;20045;-73
2023/12/29 05:14:15;;;;;;;20.05;3.67;;;;;;;10.67;100.00;100532.38;5100447;27;20032;-73
2023/12/29 05:16:44;;;;;;;22.60;4.05;;;;;;;10.71;100.00;100547.22;5102598;27;20207;-73
2023/12/29 05:19:09;;;;;;;23.60;4.30;;;;;;;10.74;100.00;100534.50;5093693;27;20028;-73
2023/12/29 05:21:35;;;;;;;13.20;4.82;;;;;;;10.71;100.00;100532.06;5086613;27;20035;-73
2023/12/29 05:24:00;;;;;;;20.10;4.45;;;;;;;10.72;100.00;100524.91;5097015;27;20464;-73
2023/12/29 05:26:26;;;;;;;20.95;4.50;;;;;;;10.71;100.00;100524.06;5087676;27;20508;-73
2023/12/29 05:28:54;;;;;;;24.40;4.38;;;;;;;10.74;100.00;100525.63;5095015;27;20669;-74
2023/12/29 05:31:20;;;;;;;26.02;5.03;;;;;;;10.73;100.00;100523.94;5104832;27;20036;-73
2023/12/29 05:33:45;;;;;;;16.90;4.15;;;;;;;10.70;100.00;100513.50;5095203;27;20029;-73
2023/12/29 05:36:11;;;;;;;16.38;4.20;;;;;;;10.74;100.00;100530.97;5084496;28;20578;-73
2023/12/29 05:38:37;;;;;;;18.98;4.63;;;;;;;10.74;100.00;100533.66;5077031;27;20370;-73
2023/12/29 05:41:04;;;;;;;26.23;4.28;;;;;;;10.70;100.00;100533.03;5099432;27;20050;-73
2023/12/29 05:43:32;;;;;;;23.42;5.35;;;;;;;10.68;100.00;100542.91;5071346;28;20071;-74
2023/12/29 05:45:58;;;;;;;33.47;6.20;;;;;;;10.69;100.00;100541.97;5077216;28;20072;-73
2023/12/29 05:48:24;;;;;;;26.10;5.00;;;;;;;10.66;100.00;100549.34;5075687;28;20071;-74
2023/12/29 05:50:50;;;;;;;21.55;5.03;;;;;;;10.67;100.00;100538.56;5070656;28;20072;-73
2023/12/29 05:53:16;;;;;;;23.10;4.93;;;;;;;10.64;100.00;100549.41;5084012;28;20144;-73
2023/12/29 05:55:42;;;;;;;25.17;4.32;;;;;;;10.59;100.00;100524.88;5080026;28;20036;-73
2023/12/29 05:58:08;;;;;;;13.80;4.32;;;;;;;10.62;100.00;100540.69;5073089;28;20095;-73
2023/12/29 06:00:33;;;;;;;23.30;5.20;;;;;;;10.56;100.00;100547.28;5079629;28;20488;-73
2023/12/29 06:02:59;;;;;;;13.88;3.83;;;;;;;10.56;100.00;100562.44;5053654;28;20859;-72
2023/12/29 06:05:25;;;;;;;28.67;4.68;;;;;;;10.53;100.00;100558.16;5069918;28;20036;-73
2023/12/29 06:07:50;;;;;;;15.40;4.18;;;;;;;10.57;100.00;100541.00;5069776;28;20032;-73
2023/12/29 06:10:16;;;;;;;21.58;4.50;;;;;;;10.55;100.00;100545.59;5069380;28;20075;-76
2023/12/29 06:12:42;;;;;;;23.45;3.80;;;;;;;10.59;100.00;100546.22;5069877;28;20045;-73
2023/12/29 06:15:08;;;;;;;21.70;4.30;;;;;;;10.53;100.00;100555.47;5069006;28;20029;-75
2023/12/29 06:17:35;;;;;;;23.15;4.13;;;;;;;10.52;100.00;100543.13;5071547;28;20033;-73
2023/12/29 06:20:02;;;;;;;16.23;4.05;;;;;;;10.55;100.00;100556.25;5072116;28;20083;-73
2023/12/29 06:22:28;;;;;;;20.77;5.15;;;;;;;10.47;100.00;100555.06;5084027;27;20119;-73
2023/12/29 06:24:53;;;;;;;22.25;5.00;;;;;;;10.54;100.00;100548.34;5077954;28;20034;-73
2023/12/29 06:27:22;;;;;;;23.80;4.75;;;;;;;10.43;100.00;100543.75;5069030;28;20478;-73
2023/12/29 06:29:48;;;;;;;23.48;4.68;;;;;;;10.43;100.00;100543.75;5067315;28;20037;-73
2023/12/29 06:32:13;;;;;;;19.95;3.65;;;;;;;10.39;100.00;100542.22;5080139;28;20462;-73
2023/12/29 06:34:42;;;;;;;21.23;4.55;;;;;;;10.47;100.00;100541.72;5076674;28;20877;-73
2023/12/29 06:37:07;;;;;;;18.05;4.97;;;;;;;10.44;100.00;100541.91;5080251;28;20825;-72
2023/12/29 06:39:33;;;;;;;14.70;3.78;;;;;;;10.50;100.00;100545.03;5078829;27;20048;-73
2023/12/29 06:41:58;;;;;;;20.83;4.18;;;;;;;10.50;100.00;100538.88;5095180;27;20591;-72
2023/12/29 06:44:24;;;;;;;19.30;4.10;;;;;;;10.47;100.00;100542.56;5102986;27;20457;-73
2023/12/29 06:46:50;;;;;;;22.45;4.93;;;;;;;10.47;100.00;100549.72;5095446;27;20039;-73
2023/12/29 06:49:15;;;;;;;27.17;4.20;;;;;;;10.44;100.00;100542.81;5101013;27;21062;-73
2023/12/29 06:51:41;;;;;;;18.05;4.88;;;;;;;10.46;100.00;100540.03;5103463;27;20036;-74
2023/12/29 06:54:07;;;;;;;19.80;3.95;;;;;;;10.52;100.00;100543.13;5077012;27;20032;-73
2023/12/29 06:56:32;;;;;;;20.77;3.72;;;;;;;10.45;100.00;100539.19;5094567;27;20036;-74
2023/12/29 06:58:58;;;;;;;22.70;4.45;;;;;;;10.44;100.00;100542.81;5090326;27;20124;-73
2023/12/29 07:01:24;;;;;;;21.30;4.47;;;;;;;10.47;100.00;100533.72;5089189;27;20911;-72
2023/12/29 07:03:50;;;;;;;17.75;4.07;;;;;;;10.52;100.00;100551.13;5088949;28;20477;-73
2023/12/29 07:06:16;;;;;;;18.70;3.50;;;;;;;10.50;100.00;100545.03;5094727;27;20101;-73
2023/12/29 07:08:41;;;;;;;18.02;4.38;;;;;;;10.47;100.00;100547.06;5091559;27;20047;-73
2023/12/29 07:11:11;;;;;;;24.05;3.28;;;;;;;10.48;100.00;100556.75;5091057;27;20942;-73
2023/12/29 07:13:37;;;;;;;15.27;3.63;;;;;;;10.36;100.00;100563.78;5070687;28;20136;-73
2023/12/29 07:16:04;;;;;;;13.07;3.05;;;;;;;10.32;100.00;100567.59;5096074;27;20036;-73
2023/12/29 07:18:29;;;;;;;20.60;3.45;;;;;;;10.16;100.00;100562.41;5102113;27;20064;-73
2023/12/29 07:20:55;;;;;;;15.20;3.67;;;;;;;10.07;100.00;100553.19;5089583;28;20032;-73
2023/12/29 07:23:20;;;;;;;21.33;5.05;;;;;;;10.00;100.00;100556.38;5078448;28;20035;-72
2023/12/29 07:25:48;;;;;;;10.93;3.63;;;;;;;9.98;100.00;100567.13;5070437;28;20078;-72
2023/12/29 07:28:13;;;;;;;11.77;3.42;;;;;;;9.94;100.00;100560.31;5082973;27;20044;-73
2023/12/29 07:30:39;;;;;;;18.40;5.10;;;;;;;9.99;100.00;100559.97;5101789;27;20048;-73
2023/12/29 07:33:04;;;;;;;12.77;3.45;;;;;;;10.02;100.00;100562.47;5100901;27;20119;-75
2023/12/29 07:35:30;;;;;;;12.05;3.40;;;;;;;9.96;100.00;100555.72;5094847;27;20071;-74
2023/12/29 07:37:56;;;;;;;14.65;4.25;;;;;;;9.83;100.00;100549.47;5098676;27;20071;-73
2023/12/29 07:40:22;;;;;;;19.92;4.38;;;;;;;9.79;100.00;100554.16;5090114;27;20040;-73
2023/12/29 07:42:50;;;;;;;22.98;4.32;;;;;;;9.83;100.00;100552.13;5093314;27;20149;-75
2023/12/29 07:45:16;;;;;;;17.23;4.03;;;;;;;9.69;100.00;100558.38;5085478;27;20523;-73
2023/12/29 07:47:41;;;;;;;14.68;3.63;;;;;;;9.76;100.00;100561.50;5087134;27;20147;-73
2023/12/29 07:50:07;;;;;;;11.57;3.70;;;;;;;9.70;100.00;100565.41;5101882;27;20727;-73
2023/12/29 07:52:33;;;;;;;16.10;3.83;;;;;;;9.79;100.00;100556.84;5099524;27;20414;-73
2023/12/29 07:54:58;;;;;;;18.63;4.40;;;;;;;9.86;100.00;100555.47;5106944;27;20028;-73
2023/12/29 07:57:24;;;;;;;17.33;4.13;;;;;;;9.90;100.00;100545.47;5083652;27;20066;-73
2023/12/29 07:59:49;;;;;;;19.45;4.45;;;;;;;9.89;100.00;100554.44;5104595;27;20293;-73
2023/12/29 08:02:15;;;;;;;20.23;4.07;;;;;;;9.84;100.00;100543.22;5091018;28;20047;-75
2023/12/29 08:04:40;;;;;;;18.27;4.53;;;;;;;9.81;100.00;100551.41;5091801;28;20047;-73
2023/12/29 08:07:06;;;;;;;15.13;4.43;;;;;;;9.86;100.00;100542.16;5085943;27;20047;-72
2023/12/29 08:09:32;;;;;;;12.52;3.13;;;;;;;9.92;100.00;100548.03;5103116;27;20043;-73
2023/12/29 08:11:57;;;;;;;15.93;4.00;;;;;;;9.92;100.00;100545.38;5096043;27;20032;-73
2023/12/29 08:14:23;;;;;;;15.65;3.83;;;;;;;10.03;100.00;100550.84;5099483;27;20040;-73
2023/12/29 08:16:49;;;;;;;16.58;3.80;;;;;;;10.09;100.00;100553.97;5089602;27;20532;-73
2023/12/29 08:19:15;;;;;;;12.30;2.90;;;;;;;10.05;100.00;100552.47;5107716;27;20050;-73
2023/12/29 08:21:41;;;;;;;15.32;3.33;;;;;;;10.20;100.00;100550.59;5088087;27;20044;-73
2023/12/29 08:24:06;;;;;;;15.07;3.08;;;;;;;10.22;100.00;100547.81;5086999;27;20040;-72
2023/12/29 08:26:32;;;;;;;16.80;3.38;;;;;;;10.21;100.00;100552.28;5102917;27;20036;-73
2023/12/29 08:28:58;;;;;;;14.40;3.42;;;;;;;10.18;100.00;100548.97;5071561;28;20041;-73
2023/12/29 08:31:23;;;;;;;16.95;3.03;;;;;;;10.18;100.00;100559.63;5078959;28;20033;-73
2023/12/29 08:33:49;;;;;;;13.45;3.33;;;;;;;10.16;100.00;100554.41;5099979;27;20468;-75
2023/12/29 08:36:18;;;;;;;17.67;3.53;;;;;;;10.33;100.00;100563.97;5103571;27;21069;-73
2023/12/29 08:38:44;;;;;;;11.90;4.13;;;;;;;10.21;100.00;100549.63;5106062;27;20041;-73
2023/12/29 08:41:13;;;;;;;10.55;3.03;;;;;;;10.29;100.00;100566.00;5096633;27;20509;-72
2023/12/29 08:43:38;;;;;;;16.65;3.38;;;;;;;10.30;100.00;100550.88;5105316;27;20558;-72
2023/12/29 08:46:04;;;;;;;11.43;3.28;;;;;;;10.36;100.00;100564.63;5102639;27;20523;-73
2023/12/29 08:48:29;;;;;;;13.60;2.97;;;;;;;10.35;100.00;100562.06;5110239;27;20046;-73
2023/12/29 08:50:55;;;;;;;14.13;2.85;;;;;;;10.26;100.00;100557.34;5080429;27;20031;-75
2023/12/29 08:53:20;;;;;;;14.77;2.88;;;;;;;10.34;100.00;100568.34;5112303;27;20492;-74
2023/12/29 08:55:46;;;;;;;10.00;2.25;;;;;;;10.40;100.00;100575.94;5106479;27;20426;-73
2023/12/29 08:58:12;;;;;;;9.30;2.50;;;;;;;10.43;100.00;100561.53;5110268;27;20032;-75
2023/12/29 09:00:37;;;;;;;10.88;2.97;;;;;;;10.46;100.00;100567.53;5096862;27;20047;-72
2023/12/29 09:03:03;;;;;;;16.00;3.05;;;;;;;10.49;100.00;100554.00;5115315;27;20028;-73
2023/12/29 09:05:29;;;;;;;8.95;2.22;;;;;;;10.52;100.00;100564.44;5096122;28;20036;-76
2023/12/29 09:07:54;;;;;;;7.03;2.30;;;;;;;10.54;100.00;100549.22;5106528;28;20036;-74
2023/12/29 09:10:21;;;;;;;8.32;2.03;;;;;;;10.66;100.00;100544.00;5110478;27;20951;-73
2023/12/29 09:12:47;;;;;;;10.20;2.60;;;;;;;10.73;100.00;100542.59;5103416;27;20039;-74
2023/12/29 09:15:12;;;;;;;12.02;2.42;;;;;;;10.67;100.00;100557.22;5105286;27;20028;-72
2023/12/29 09:17:38;;;;;;;12.88;3.00;;;;;;;10.63;100.00;100537.06;5099828;27;20051;-73
2023/12/29 09:20:03;;;;;;;10.57;2.13;;;;;;;10.71;100.00;100555.22;5097284;27;20040;-72
2023/12/29 09:22:29;;;;;;;7.47;1.92;;;;;;;10.78;100.00;100544.00;5089579;27;20489;-73
2023/12/29 09:24:55;;;;;;;12.38;2.40;;;;;;;10.80;100.00;100552.75;5093961;27;20480;-73
2023/12/29 09:27:21;;;;;;;3.92;1.80;;;;;;;10.88;100.00;100558.41;5101550;27;20028;-73
2023/12/29 09:29:46;;;;;;;9.02;2.47;;;;;;;10.88;100.00;100553.06;5099310;27;20730;-74
2023/12/29 09:32:12;;;;;;;9.82;2.00;;;;;;;10.82;100.00;100572.16;5100682;27;21946;-73
2023/12/29 09:34:38;;;;;;;9.20;2.00;;;;;;;10.81;100.00;100559.81;5097601;27;20190;-73
2023/12/29 09:37:03;;;;;;;6.95;2.35;;;;;;;10.92;100.00;100553.72;5093914;28;20156;-72
2023/12/29 09:39:29;;;;;;;9.35;2.05;;;;;;;10.89;100.00;100560.13;5078568;28;20114;-73
2023/12/29 09:41:58;;;;;;;10.43;2.42;;;;;;;10.92;100.00;100563.53;5091918;27;20570;-72
2023/12/29 09:44:25;;;;;;;7.32;1.60;;;;;;;10.97;100.00;100567.59;5098078;27;20028;-73
2023/12/29 09:46:54;;;;;;;5.18;1.60;;;;;;;10.97;100.00;100567.59;5102072;27;20036;-72
2023/12/29 09:49:20;;;;;;;4.90;1.98;;;;;;;10.92;100.00;100560.88;5100463;27;20327;-73
2023/12/29 09:51:46;;;;;;;7.45;2.00;;;;;;;10.94;100.00;100578.47;5094963;27;20038;-73
2023/12/29 09:54:13;;;;;;;3.67;1.63;;;;;;;10.98;100.00;100571.97;5074958;28;20904;-74
2023/12/29 09:56:39;;;;;;;5.78;2.13;;;;;;;11.05;100.00;100577.75;5091209;27;20063;-73
2023/12/29 09:59:08;;;;;;;5.35;1.60;;;;;;;11.03;100.00;100584.97;5095127;27;20106;-73
2023/12/29 10:01:36;;;;;;;7.28;1.60;;;;;;;11.05;100.00;100575.06;5101963;27;20163;-74
2023/12/29 10:04:01;;;;;;;5.10;1.77;;;;;;;11.14;100.00;100579.75;5097391;27;20028;-73
2023/12/29 10:06:34;;;;;;;5.88;2.30;;;;;;;11.11;100.00;100579.97;5093561;27;20024;-74
2023/12/29 10:09:04;;;;;;;6.35;1.65;;;;;;;11.06;100.00;100580.31;5100467;27;20184;-74
2023/12/29 10:11:34;;;;;;;8.27;1.70;;;;;;;11.12;100.00;100582.53;5088948;27;20028;-74
2023/12/29 10:14:09;;;;;;;4.30;1.67;;;;;;;11.18;100.00;100583.91;5098603;27;20063;-73
2023/12/29 10:16:37;;;;;;;3.88;2.00;;;;;;;11.29;100.00;100581.34;5101666;27;20028;-73
2023/12/29 10:19:17;;;;;;;4.75;1.83;;;;;;;11.37;100.00;100583.47;5083796;27;20123;-73
2023/12/29 10:21:58;;;;;;;4.03;1.67;;;;;;;11.33;100.00;100576.66;5087967;27;20032;-74
2023/12/29 10:24:24;;;;;;;6.43;2.10;;;;;;;11.29;100.00;100578.66;5092662;27;20047;-73
2023/12/29 10:26:50;;;;;;;5.93;2.00;;;;;;;11.41;100.00;100572.47;5077000;27;20126;-74
2023/12/29 10:29:18;;;;;;;1.75;1.63;;;;;;;11.39;100.00;100577.06;5092701;27;20032;-73
2023/12/29 10:31:44;;;;;;;5.68;1.73;;;;;;;11.36;100.00;100571.94;5092846;27;20119;-74
2023/12/29 10:34:31;;;;;;;7.68;2.35;;;;;;;11.38;100.00;100588.69;5061134;27;20120;-73
2023/12/29 10:37:06;;;;;;;5.00;1.95;;;;;;;11.38;100.00;100580.69;5094830;27;20906;-74
2023/12/29 10:39:32;;;;;;;8.25;2.45;;;;;;;11.49;100.00;100579.94;5098446;27;20059;-72
2023/12/29 10:42:06;;;;;;;5.55;1.50;;;;;;;11.58;100.00;100584.63;5077248;28;20139;-74
2023/12/29 10:44:36;;;;;;;4.30;1.60;;;;;;;11.45;100.00;100583.81;5094009;27;20146;-73
2023/12/29 10:47:12;;;;;;;5.97;1.80;;;;;;;11.37;100.00;100595.00;5081045;27;20032;-73
2023/12/29 10:49:39;;;;;;;2.03;1.40;;;;;;;11.28;100.00;100597.47;5091816;27;20094;-73
2023/12/29 10:52:17;;;;;;;4.72;1.75;;;;;;;11.46;100.00;100590.00;5090206;27;20221;-73
2023/12/29 10:54:43;;;;;;;4.72;1.70;;;;;;;11.57;100.00;100603.44;5084980;27;20196;-73
2023/12/29 10:57:11;;;;;;;8.00;2.30;;;;;;;11.34;100.00;100589.88;5087587;27;20541;-74
2023/12/29 10:59:37;;;;;;;4.25;1.95;;;;;;;11.33;100.00;100585.50;5092283;27;20032;-74
2023/12/29 11:02:03;;;;;;;3.72;1.70;;;;;;;11.33;100.00;100587.31;5083525;28;20036;-74
2023/12/29 11:04:29;;;;;;;2.55;1.52;;;;;;;11.40;100.00;100572.59;5096760;27;20040;-73
2023/12/29 11:06:55;;;;;;;2.72;1.67;;;;;;;11.51;100.00;100575.34;5097576;27;20032;-74
2023/12/29 11:09:28;;;;;;;4.72;2.03;;;;;;;11.40;100.00;100567.25;5093412;27;20027;-74